createdAt,value
2022-11-23T00:01:38.056Z,68.83
2022-11-23T00:04:07.922Z,60.30
2022-11-23T00:06:36.340Z,77.97
2022-11-23T00:09:05.142Z,64.60
2022-11-23T00:11:35.970Z,71.27
2022-11-23T00:14:04.898Z,68.67
2022-11-23T00:16:33.076Z,68.97
2022-11-23T00:19:02.435Z,69.40
2022-11-23T00:21:33.209Z,73.07
2022-11-23T00:24:01.930Z,75.50
2022-11-23T00:26:30.025Z,84.43
2022-11-23T00:28:59.662Z,72.67
2022-11-23T00:31:28.926Z,66.40
2022-11-23T00:33:58.629Z,82.50
2022-11-23T00:36:28.450Z,71.60
2022-11-23T00:38:57.951Z,69.17
2022-11-23T00:41:28.224Z,66.40
2022-11-23T00:43:56.783Z,67.23
2022-11-23T00:46:28.084Z,69.30
2022-11-23T00:48:58.475Z,78.07
2022-11-23T00:51:29.651Z,78.40
2022-11-23T00:53:59.558Z,65.00
2022-11-23T00:56:28.740Z,67.83
2022-11-23T00:58:58.827Z,80.23
2022-11-23T01:01:30.972Z,69.97
2022-11-23T01:04:00.713Z,63.07
2022-11-23T01:06:33.215Z,71.67
2022-11-23T01:09:05.744Z,59.90
2022-11-23T01:11:34.191Z,78.43
2022-11-23T01:14:03.208Z,66.87
2022-11-23T01:16:34.384Z,69.27
2022-11-23T01:19:04.688Z,74.43
2022-11-23T01:21:33.907Z,65.67
2022-11-23T01:24:05.822Z,69.30
2022-11-23T01:26:34.170Z,80.87
2022-11-23T01:29:02.626Z,76.17
2022-11-23T01:31:32.203Z,70.37
2022-11-23T01:34:02.815Z,77.70
2022-11-23T01:36:32.523Z,63.93
2022-11-23T01:39:01.896Z,73.77
2022-11-23T01:41:32.431Z,80.27
2022-11-23T01:44:01.408Z,66.33
2022-11-23T01:46:29.400Z,59.53
2022-11-23T01:49:02.894Z,70.80
2022-11-23T01:51:35.608Z,70.13
2022-11-23T01:54:08.339Z,72.73
2022-11-23T01:56:39.982Z,79.23
2022-11-23T01:59:13.532Z,73.20
2022-11-23T02:01:41.600Z,68.60
2022-11-23T02:04:15.640Z,68.47
2022-11-23T02:06:48.341Z,72.10
2022-11-23T02:09:18.354Z,83.63
2022-11-23T02:11:46.614Z,74.13
2022-11-23T02:14:20.481Z,68.13
2022-11-23T02:16:51.483Z,68.43
2022-11-23T02:19:33.124Z,73.90
2022-11-23T02:22:01.444Z,66.07
2022-11-23T02:24:35.188Z,69.73
2022-11-23T02:27:06.881Z,74.40
2022-11-23T02:29:35.915Z,68.50
2022-11-23T02:32:04.113Z,71.53
2022-11-23T02:34:32.405Z,71.60
2022-11-23T02:37:02.121Z,74.93
2022-11-23T02:39:35.365Z,60.10
2022-11-23T02:42:06.996Z,83.43
2022-11-23T02:44:42.637Z,76.07
2022-11-23T02:47:11.553Z,65.80
2022-11-23T02:49:42.315Z,75.37
2022-11-23T02:52:10.676Z,70.93
2022-11-23T02:54:39.122Z,82.43
2022-11-23T02:57:08.894Z,73.53
2022-11-23T02:59:37.682Z,73.47
2022-11-23T03:02:07.838Z,77.20
2022-11-23T03:04:37.109Z,75.37
2022-11-23T03:07:05.395Z,76.33
2022-11-23T03:09:34.576Z,67.23
2022-11-23T03:12:03.715Z,69.93
2022-11-23T03:14:33.419Z,81.63
2022-11-23T03:17:02.159Z,75.23
2022-11-23T03:19:36.192Z,76.17
2022-11-23T03:22:05.035Z,75.40
2022-11-23T03:24:33.468Z,73.23
2022-11-23T03:27:04.010Z,71.77
2022-11-23T03:29:34.194Z,71.87
2022-11-23T03:32:08.086Z,67.97
2022-11-23T03:34:36.618Z,69.23
2022-11-23T03:37:05.694Z,66.87
2022-11-23T03:39:34.465Z,62.70
2022-11-23T03:42:22.594Z,73.17
2022-11-23T03:44:52.392Z,59.43
2022-11-23T03:47:20.540Z,66.70
2022-11-23T03:49:49.759Z,74.33
2022-11-23T03:52:17.961Z,64.33
2022-11-23T03:54:47.097Z,68.50
2022-11-23T03:57:15.693Z,75.47
2022-11-23T03:59:44.046Z,65.47
2022-11-23T04:02:15.003Z,65.00
2022-11-23T04:04:51.830Z,68.60
2022-11-23T04:07:54.723Z,73.37
2022-11-23T04:10:26.416Z,69.60
2022-11-23T04:13:16.563Z,75.80
2022-11-23T04:15:44.935Z,70.00
2022-11-23T04:18:14.320Z,70.53
2022-11-23T04:20:42.769Z,78.33
2022-11-23T04:23:13.497Z,63.33
2022-11-23T04:25:43.090Z,72.77
2022-11-23T04:28:11.489Z,70.97
2022-11-23T04:30:40.234Z,74.43
2022-11-23T04:33:08.525Z,72.13
2022-11-23T04:35:38.864Z,79.63
2022-11-23T04:38:07.758Z,73.80
2022-11-23T04:40:36.071Z,74.13
2022-11-23T04:43:06.516Z,73.80
2022-11-23T04:45:39.469Z,80.73
2022-11-23T04:48:11.164Z,79.90
2022-11-23T04:50:43.030Z,84.27
2022-11-23T04:53:15.693Z,77.27
2022-11-23T04:55:48.173Z,77.73
2022-11-23T04:58:17.840Z,78.67
2022-11-23T05:00:49.098Z,83.37
2022-11-23T05:03:17.622Z,74.37
2022-11-23T05:05:47.395Z,77.13
2022-11-23T05:08:15.413Z,81.27
2022-11-23T05:10:52.493Z,86.17
2022-11-23T05:13:20.873Z,80.83
2022-11-23T05:15:50.294Z,74.80
2022-11-23T05:18:24.298Z,83.03
2022-11-23T05:20:54.122Z,87.73
2022-11-23T05:23:22.737Z,76.67
2022-11-23T05:25:53.942Z,78.87
2022-11-23T05:28:39.626Z,77.90
2022-11-23T05:31:10.704Z,86.03
2022-11-23T05:33:39.028Z,76.23
2022-11-23T05:36:14.004Z,71.17
2022-11-23T05:38:43.333Z,74.13
2022-11-23T05:41:21.214Z,80.17
2022-11-23T05:43:52.726Z,71.40
2022-11-23T05:46:25.160Z,77.10
2022-11-23T05:48:53.865Z,74.90
2022-11-23T05:51:23.968Z,76.83
2022-11-23T05:53:52.280Z,85.03
2022-11-23T05:56:28.908Z,71.87
2022-11-23T05:59:12.484Z,78.27
2022-11-23T06:01:43.323Z,74.60
2022-11-23T06:04:14.821Z,85.73
2022-11-23T06:06:48.057Z,76.60
2022-11-23T06:09:16.377Z,71.87
2022-11-23T06:11:48.269Z,78.90
2022-11-23T06:14:19.867Z,69.63
2022-11-23T06:16:49.371Z,63.73
2022-11-23T06:19:30.592Z,79.73
2022-11-23T06:22:01.289Z,71.03
2022-11-23T06:24:32.819Z,74.53
2022-11-23T06:27:33.482Z,66.80
2022-11-23T06:30:05.404Z,79.00
2022-11-23T06:32:34.675Z,74.33
2022-11-23T06:35:03.717Z,76.17
2022-11-23T06:37:36.994Z,75.67
2022-11-23T06:40:05.687Z,75.37
2022-11-23T06:42:39.771Z,63.47
2022-11-23T06:45:14.988Z,80.77
2022-11-23T06:47:43.809Z,78.80
2022-11-23T06:50:13.935Z,72.03
2022-11-23T06:52:43.647Z,74.67
2022-11-23T06:55:11.732Z,75.47
2022-11-23T06:57:40.151Z,72.97
2022-11-23T07:00:12.197Z,74.13
2022-11-23T07:02:40.798Z,67.23
2022-11-23T07:05:10.460Z,69.23
2022-11-23T07:07:40.015Z,72.97
2022-11-23T07:10:16.046Z,70.87
2022-11-23T07:12:47.731Z,71.70
2022-11-23T07:15:18.684Z,70.97
2022-11-23T07:17:47.666Z,66.83
2022-11-23T07:20:16.142Z,79.97
2022-11-23T07:22:45.982Z,79.07
2022-11-23T07:25:18.428Z,66.83
2022-11-23T07:27:47.071Z,72.77
2022-11-23T07:30:16.233Z,78.73
2022-11-23T07:32:44.683Z,74.27
2022-11-23T07:35:13.294Z,77.00
2022-11-23T07:37:45.261Z,67.47
2022-11-23T07:40:15.713Z,77.10
2022-11-23T07:42:45.785Z,75.40
2022-11-23T07:45:15.163Z,72.60
2022-11-23T07:47:46.817Z,75.00
2022-11-23T07:50:15.666Z,73.97
2022-11-23T07:52:44.014Z,64.07
2022-11-23T07:55:12.031Z,76.43
2022-11-23T07:57:41.828Z,79.93
2022-11-23T08:00:12.102Z,67.97
2022-11-23T08:02:53.046Z,78.10
2022-11-23T08:05:29.930Z,69.97
2022-11-23T08:08:02.626Z,64.37
2022-11-23T08:10:32.360Z,71.07
2022-11-23T08:13:04.602Z,80.17
2022-11-23T08:15:33.613Z,75.57
2022-11-23T08:18:04.042Z,73.50
2022-11-23T08:20:34.280Z,66.57
2022-11-23T08:23:02.640Z,72.03
2022-11-23T08:25:31.306Z,71.07
2022-11-23T08:28:02.890Z,67.87
2022-11-23T08:30:33.036Z,66.37
2022-11-23T08:33:04.600Z,62.93
2022-11-23T08:35:34.532Z,72.23
2022-11-23T08:38:03.056Z,74.17
2022-11-23T08:40:31.309Z,73.77
2022-11-23T08:42:59.920Z,70.57
2022-11-23T08:45:30.351Z,67.93
2022-11-23T08:48:00.948Z,63.30
2022-11-23T08:50:30.386Z,65.97
2022-11-23T08:53:00.255Z,67.67
2022-11-23T08:55:29.484Z,59.07
2022-11-23T08:57:58.566Z,75.37
2022-11-23T09:00:27.256Z,75.60
2022-11-23T09:02:58.922Z,66.97
2022-11-23T09:05:28.026Z,78.30
2022-11-23T09:07:57.023Z,72.40
2022-11-23T09:10:25.082Z,66.40
2022-11-23T09:12:53.605Z,72.30
2022-11-23T09:15:22.401Z,67.87
2022-11-23T09:17:50.834Z,67.70
2022-11-23T09:20:20.444Z,74.67
2022-11-23T09:22:52.448Z,69.43
2022-11-23T09:25:21.332Z,74.33
2022-11-23T09:27:49.873Z,75.60
2022-11-23T09:30:18.590Z,65.30
2022-11-23T09:32:47.385Z,70.50
2022-11-23T09:35:15.704Z,67.93
2022-11-23T09:37:45.438Z,72.80
2022-11-23T09:40:17.120Z,67.17
2022-11-23T09:43:09.217Z,70.53
2022-11-23T09:45:44.382Z,72.87
2022-11-23T09:48:38.923Z,67.80
2022-11-23T09:51:15.491Z,74.43
2022-11-23T09:53:50.929Z,69.43
2022-11-23T09:56:22.810Z,72.07
2022-11-23T09:58:54.440Z,63.80
2022-11-23T10:01:22.963Z,66.57
2022-11-23T10:03:52.069Z,74.37
2022-11-23T10:06:22.668Z,66.47
2022-11-23T10:09:02.668Z,75.37
2022-11-23T10:11:50.354Z,65.60
2022-11-23T10:14:37.004Z,81.13
2022-11-23T10:17:11.638Z,71.90
2022-11-23T10:19:53.854Z,68.70
2022-11-23T10:22:27.530Z,66.10
2022-11-23T10:24:57.369Z,74.27
2022-11-23T10:27:26.125Z,80.00
2022-11-23T10:29:56.479Z,83.23
2022-11-23T10:32:31.572Z,85.30
2022-11-23T10:35:05.131Z,84.27
2022-11-23T10:37:34.301Z,77.47
2022-11-23T10:40:04.041Z,72.87
2022-11-23T10:42:37.288Z,69.00
2022-11-23T10:45:06.831Z,84.03
2022-11-23T10:47:40.904Z,77.23
2022-11-23T10:50:24.380Z,75.33
2022-11-23T10:52:55.373Z,70.47
2022-11-23T10:55:29.115Z,67.40
2022-11-23T10:57:58.025Z,71.83
2022-11-23T11:00:30.924Z,76.13
2022-11-23T11:03:00.771Z,75.43
2022-11-23T11:08:22.808Z,70.80
2022-11-23T11:11:00.037Z,72.53
2022-11-23T11:13:31.804Z,64.70
2022-11-23T11:16:02.218Z,74.20
2022-11-23T11:18:32.790Z,74.70
2022-11-23T11:21:04.990Z,64.17
2022-11-23T11:23:35.818Z,72.73
2022-11-23T11:26:18.187Z,74.10
2022-11-23T11:28:50.101Z,70.57
2022-11-23T11:31:50.399Z,74.10
2022-11-23T11:34:23.441Z,81.00
2022-11-23T11:36:59.688Z,73.90
2022-11-23T11:39:34.717Z,76.90
2022-11-23T11:42:08.101Z,75.70
2022-11-23T11:44:41.373Z,78.87
2022-11-23T11:47:24.027Z,80.73
2022-11-23T11:49:55.028Z,76.57
2022-11-23T11:52:28.040Z,79.73
2022-11-23T11:55:05.266Z,71.13
2022-11-23T11:57:38.234Z,71.87
2022-11-23T12:00:14.419Z,69.87
2022-11-23T12:02:52.888Z,71.30
2022-11-23T12:05:25.727Z,74.93
2022-11-23T12:08:03.237Z,82.40
2022-11-23T12:10:37.720Z,81.30
2022-11-23T12:13:12.914Z,71.67
2022-11-23T12:15:50.518Z,72.13
2022-11-23T12:18:45.651Z,76.33
2022-11-23T12:21:34.862Z,84.63
2022-11-23T12:24:11.363Z,75.90
2022-11-23T12:26:50.188Z,81.90
2022-11-23T12:29:36.572Z,87.20
2022-11-23T12:32:17.954Z,77.50
2022-11-23T12:35:06.069Z,72.10
2022-11-23T12:37:43.795Z,68.80
2022-11-23T12:40:43.408Z,74.70
2022-11-23T12:43:15.215Z,73.83
2022-11-23T12:46:11.726Z,71.33
2022-11-23T12:48:57.456Z,78.57
2022-11-23T12:51:35.637Z,69.80
2022-11-23T12:54:18.817Z,71.43
2022-11-23T12:57:09.515Z,86.30
2022-11-23T12:59:45.927Z,89.57
2022-11-23T13:02:36.795Z,81.80
2022-11-23T13:05:50.508Z,76.33
2022-11-23T13:08:49.819Z,83.90
2022-11-23T13:11:28.272Z,81.73
2022-11-23T13:14:08.631Z,67.17
2022-11-23T13:16:58.704Z,68.43
2022-11-23T13:19:48.712Z,78.13
2022-11-23T13:22:19.964Z,76.07
2022-11-23T13:25:04.358Z,83.00
2022-11-23T13:27:44.601Z,76.87
2022-11-23T13:30:45.633Z,82.17
2022-11-23T13:33:31.801Z,78.80
2022-11-23T13:36:11.509Z,71.60
2022-11-23T13:38:44.927Z,71.40
2022-11-23T13:41:53.470Z,70.20
2022-11-23T13:44:24.258Z,80.03
2022-11-23T13:47:07.895Z,79.50
2022-11-23T13:49:42.157Z,79.70
2022-11-23T13:52:28.344Z,74.83
2022-11-23T13:55:07.418Z,93.33
2022-11-23T13:57:38.301Z,88.53
2022-11-23T14:00:44.164Z,89.20
2022-11-23T14:03:48.815Z,86.70
2022-11-23T14:06:34.224Z,96.90
2022-11-23T14:09:10.414Z,93.00
2022-11-23T14:11:50.435Z,88.90
2022-11-23T14:14:23.486Z,95.57
2022-11-23T14:17:11.461Z,88.17
2022-11-23T14:19:51.992Z,80.23
2022-11-23T14:22:30.142Z,89.47
2022-11-23T14:25:18.737Z,89.30
2022-11-23T14:27:58.648Z,86.70
2022-11-23T14:30:46.327Z,88.03
2022-11-23T14:33:27.000Z,80.73
2022-11-23T14:36:07.165Z,84.40
2022-11-23T14:39:05.537Z,93.50
2022-11-23T14:41:37.422Z,87.93
2022-11-23T14:44:06.972Z,86.10
2022-11-23T14:46:35.291Z,92.50
2022-11-23T14:49:08.247Z,91.17
2022-11-23T14:51:42.476Z,86.73
2022-11-23T14:54:12.503Z,92.27
2022-11-23T14:56:45.300Z,101.20
2022-11-23T14:59:21.869Z,91.00
2022-11-23T15:01:54.028Z,94.13
2022-11-23T15:04:29.000Z,87.17
2022-11-23T15:07:01.479Z,99.90
2022-11-23T15:09:41.790Z,96.70
2022-11-23T15:12:24.382Z,91.00
2022-11-23T15:14:53.940Z,86.93
2022-11-23T15:17:23.605Z,74.10
2022-11-23T15:19:56.826Z,81.73
2022-11-23T15:22:25.632Z,73.10
2022-11-23T15:24:54.053Z,74.83
2022-11-23T15:27:28.586Z,85.77
2022-11-23T15:29:58.240Z,87.47
2022-11-23T15:32:31.556Z,87.90
2022-11-23T15:35:06.792Z,79.43
2022-11-23T15:37:40.355Z,76.63
2022-11-23T15:40:13.912Z,91.10
2022-11-23T15:42:44.411Z,79.67
2022-11-23T15:45:35.411Z,83.10
2022-11-23T15:48:05.313Z,80.67
2022-11-23T15:50:34.335Z,84.53
2022-11-23T15:53:03.598Z,77.13
2022-11-23T15:55:31.966Z,76.20
2022-11-23T15:58:07.691Z,85.10
2022-11-23T16:00:36.430Z,75.67
2022-11-23T16:03:30.689Z,82.00
2022-11-23T16:06:20.035Z,75.50
2022-11-23T16:08:48.539Z,76.63
2022-11-23T16:11:33.788Z,79.90
2022-11-23T16:14:15.755Z,74.93
2022-11-23T16:16:46.329Z,80.83
2022-11-23T16:19:27.903Z,77.47
2022-11-23T16:22:02.250Z,90.33
2022-11-23T16:24:34.983Z,87.20
2022-11-23T16:27:13.114Z,86.00
2022-11-23T16:29:43.155Z,88.23
2022-11-23T16:32:26.847Z,81.47
2022-11-23T16:34:55.888Z,83.23
2022-11-23T16:37:25.688Z,88.03
2022-11-23T16:39:54.050Z,81.70
2022-11-23T16:42:22.104Z,81.77
2022-11-23T16:44:51.876Z,90.43
2022-11-23T16:47:23.515Z,79.87
2022-11-23T16:49:52.755Z,91.23
2022-11-23T16:52:21.805Z,71.33
2022-11-23T16:54:51.006Z,74.03
2022-11-23T16:57:25.021Z,75.63
2022-11-23T16:59:54.937Z,81.50
2022-11-23T17:02:23.516Z,80.87
2022-11-23T17:04:51.988Z,81.50
2022-11-23T17:07:20.119Z,81.33
2022-11-23T17:09:48.605Z,82.23
2022-11-23T17:12:20.677Z,73.50
2022-11-23T17:14:50.454Z,74.97
2022-11-23T17:17:22.033Z,80.53
2022-11-23T17:19:51.913Z,76.87
2022-11-23T17:22:20.983Z,76.70
2022-11-23T17:24:52.572Z,84.17
2022-11-23T17:27:24.255Z,77.60
2022-11-23T17:29:58.018Z,81.50
2022-11-23T17:32:27.639Z,82.90
2022-11-23T17:34:56.134Z,79.43
2022-11-23T17:37:25.360Z,72.67
2022-11-23T17:39:54.011Z,75.43
2022-11-23T17:42:22.091Z,86.63
2022-11-23T17:44:50.571Z,82.80
2022-11-23T17:47:24.791Z,84.83
2022-11-23T17:49:54.572Z,82.50
2022-11-23T17:52:22.957Z,81.67
2022-11-23T17:54:51.337Z,85.87
2022-11-23T17:57:22.786Z,78.40
2022-11-23T17:59:51.392Z,79.23
2022-11-23T18:02:19.843Z,86.83
2022-11-23T18:04:48.673Z,87.83
2022-11-23T18:07:18.629Z,74.50
2022-11-23T18:09:47.122Z,79.57
2022-11-23T18:12:15.264Z,84.27
2022-11-23T18:14:43.620Z,95.03
2022-11-23T18:17:11.658Z,96.90
2022-11-23T18:19:40.043Z,84.00
2022-11-23T18:22:08.125Z,92.03
2022-11-23T18:24:37.880Z,84.97
2022-11-23T18:27:06.014Z,82.50
2022-11-23T18:29:36.398Z,77.67
2022-11-23T18:32:06.639Z,79.13
2022-11-23T18:34:35.507Z,82.10
2022-11-23T18:37:03.765Z,85.03
2022-11-23T18:39:32.593Z,80.23
2022-11-23T18:42:05.743Z,73.47
2022-11-23T18:44:35.223Z,79.60
2022-11-23T18:47:03.459Z,68.17
2022-11-23T18:49:32.585Z,71.70
2022-11-23T18:52:01.156Z,62.80
2022-11-23T18:54:29.734Z,64.00
2022-11-23T18:56:58.324Z,67.30
2022-11-23T18:59:57.038Z,63.67
2022-11-23T19:02:18.327Z,53.57
2022-11-23T19:04:49.844Z,62.77
2022-11-23T19:07:23.567Z,69.40
2022-11-23T19:10:01.170Z,59.47
2022-11-23T19:12:30.751Z,62.23
2022-11-23T19:15:00.674Z,63.40
2022-11-23T19:17:30.463Z,70.60
2022-11-23T19:20:01.574Z,67.37
2022-11-23T19:22:30.969Z,73.13
2022-11-23T19:24:59.858Z,68.17
2022-11-23T19:27:28.129Z,76.27
2022-11-23T19:29:56.602Z,68.97
2022-11-23T19:32:26.243Z,65.63
2022-11-23T19:34:55.953Z,60.20
2022-11-23T19:37:24.509Z,61.63
2022-11-23T19:39:52.874Z,55.87
2022-11-23T19:42:21.470Z,63.87
2022-11-23T19:44:49.949Z,66.30
2022-11-23T19:47:22.725Z,60.33
2022-11-23T19:49:53.476Z,65.27
2022-11-23T19:52:21.602Z,66.77
2022-11-23T19:54:50.234Z,63.50
2022-11-23T19:57:18.439Z,62.40
2022-11-23T19:59:48.771Z,65.10
2022-11-23T20:02:26.429Z,63.33
2022-11-23T20:04:58.760Z,62.93
2022-11-23T20:07:27.080Z,73.27
2022-11-23T20:09:55.682Z,65.23
2022-11-23T20:12:25.924Z,58.97
2022-11-23T20:14:56.733Z,65.30
2022-11-23T20:17:29.348Z,60.70
2022-11-23T20:20:23.392Z,65.37
2022-11-23T20:23:01.921Z,66.07
2022-11-23T20:25:40.868Z,63.60
2022-11-23T20:28:13.322Z,65.50
2022-11-23T20:30:51.009Z,64.27
2022-11-23T20:33:19.701Z,71.73
2022-11-23T20:35:49.663Z,64.00
2022-11-23T20:38:18.446Z,76.57
2022-11-23T20:40:46.780Z,67.80
2022-11-23T20:43:14.963Z,62.97
2022-11-23T20:45:44.127Z,72.63
2022-11-23T20:48:12.279Z,67.37
2022-11-23T20:50:41.634Z,74.60
2022-11-23T20:53:11.125Z,67.43
2022-11-23T20:55:42.574Z,66.13
2022-11-23T20:58:13.229Z,72.07
2022-11-23T21:00:47.362Z,63.50
2022-11-23T21:03:19.583Z,74.00
2022-11-23T21:05:48.217Z,73.37
2022-11-23T21:08:27.865Z,68.23
2022-11-23T21:11:24.001Z,67.87
2022-11-23T21:14:15.663Z,63.90
2022-11-23T21:16:53.213Z,69.73
2022-11-23T21:19:22.825Z,66.63
2022-11-23T21:21:51.449Z,66.43
2022-11-23T21:24:28.192Z,70.80
2022-11-23T21:26:56.766Z,67.53
2022-11-23T21:29:25.936Z,73.23
2022-11-23T21:31:54.532Z,66.40
2022-11-23T21:34:27.841Z,72.30
2022-11-23T21:36:57.850Z,75.90
2022-11-23T21:39:33.349Z,80.43
2022-11-23T21:42:05.737Z,58.50
2022-11-23T21:44:34.206Z,68.07
2022-11-23T21:47:03.195Z,76.33
2022-11-23T21:49:34.481Z,68.00
2022-11-23T21:52:03.242Z,75.20
2022-11-23T21:54:32.845Z,73.53
2022-11-23T21:57:01.762Z,74.60
2022-11-23T21:59:30.160Z,67.40
2022-11-23T22:02:00.330Z,76.00
2022-11-23T22:04:28.526Z,70.83
2022-11-23T22:06:57.850Z,64.57
2022-11-23T22:09:26.536Z,73.87
2022-11-23T22:11:55.960Z,74.13
2022-11-23T22:14:24.408Z,64.73
2022-11-23T22:16:53.705Z,71.17
2022-11-23T22:19:22.335Z,72.43
2022-11-23T22:21:50.510Z,72.53
2022-11-23T22:24:21.180Z,78.87
2022-11-23T22:26:49.717Z,74.73
2022-11-23T22:29:19.491Z,77.77
2022-11-23T22:31:47.596Z,76.87
2022-11-23T22:34:16.378Z,78.20
2022-11-23T22:36:44.544Z,73.93
2022-11-23T22:39:12.966Z,77.33
2022-11-23T22:41:41.702Z,83.60
2022-11-23T22:44:11.616Z,75.93
2022-11-23T22:46:41.130Z,71.17
2022-11-23T22:49:09.738Z,76.97
2022-11-23T22:51:38.030Z,69.57
2022-11-23T22:54:06.605Z,75.90
2022-11-23T22:56:34.793Z,74.50
2022-11-23T22:59:03.435Z,84.90
2022-11-23T23:01:32.624Z,85.13
2022-11-23T23:04:03.442Z,74.70
2022-11-23T23:06:34.772Z,83.43
2022-11-23T23:09:06.698Z,82.33
2022-11-23T23:11:36.671Z,82.60
2022-11-23T23:14:05.911Z,80.60
2022-11-23T23:16:34.585Z,91.40
2022-11-23T23:19:04.680Z,75.03
2022-11-23T23:21:32.971Z,78.10
2022-11-23T23:24:02.209Z,92.33
2022-11-23T23:26:30.968Z,82.13
2022-11-23T23:29:02.331Z,74.67
2022-11-23T23:31:31.416Z,90.57
2022-11-23T23:34:00.760Z,83.23
2022-11-23T23:36:31.954Z,84.50
2022-11-23T23:39:03.934Z,86.50
2022-11-23T23:41:32.435Z,84.07
2022-11-23T23:44:01.310Z,83.20
2022-11-23T23:46:29.554Z,81.27
2022-11-23T23:49:00.635Z,84.17
2022-11-23T23:51:29.996Z,88.27
2022-11-23T23:53:58.930Z,82.67
2022-11-23T23:56:29.256Z,88.93
2022-11-23T23:58:59.109Z,81.40
